Time;durP1;ratioP1;P1;durP2;ratioP2;P2;SDS_P1;SDS_P2;PMS_P1;PMS_P2;Temp;Humidity;BMP_temperature;BMP_pressure;BME280_temperature;BME280_humidity;BME280_pressure;Samples;Min_cycle;Max_cycle;Signal;HPM_P1;HPM_P2
2021/08/05 00:01:13;;;;;;;3.65;1.80;;;16.30;99.90;;;;;;5058496;28;20377;-84
2021/08/05 00:03:39;;;;;;;3.38;1.70;;;17.10;99.90;;;;;;5059864;28;20373;-84
2021/08/05 00:06:05;;;;;;;4.30;2.00;;;16.60;99.90;;;;;;5055720;28;20029;-84
2021/08/05 00:08:30;;;;;;;7.88;2.10;;;16.10;99.90;;;;;;5057378;28;20036;-84
2021/08/05 00:10:56;;;;;;;4.53;2.00;;;15.60;99.90;;;;;;5059872;28;20546;-84
2021/08/05 00:13:22;;;;;;;4.20;1.88;;;17.00;99.90;;;;;;5059461;28;20025;-84
2021/08/05 00:15:47;;;;;;;5.13;1.90;;;16.30;99.90;;;;;;5051155;28;20029;-85
2021/08/05 00:18:13;;;;;;;4.45;1.70;;;16.60;99.90;;;;;;5057143;28;20029;-84
2021/08/05 00:20:38;;;;;;;4.30;2.10;;;16.30;99.90;;;;;;5058854;28;20029;-85
2021/08/05 00:23:04;;;;;;;4.15;1.63;;;16.30;99.90;;;;;;5058229;28;20060;-85
2021/08/05 00:25:30;;;;;;;6.25;2.22;;;16.30;99.90;;;;;;5055993;28;20126;-84
2021/08/05 00:27:55;;;;;;;4.63;1.88;;;16.40;99.90;;;;;;5059538;28;20397;-84
2021/08/05 00:30:22;;;;;;;4.35;2.13;;;16.50;99.90;;;;;;5057935;28;20029;-84
2021/08/05 00:32:48;;;;;;;4.03;1.67;;;16.20;99.90;;;;;;5057035;28;20029;-83
2021/08/05 00:35:13;;;;;;;3.50;1.65;;;16.10;99.90;;;;;;5059871;28;20029;-85
2021/08/05 00:37:39;;;;;;;4.03;2.17;;;16.10;99.90;;;;;;5058272;28;20583;-84
2021/08/05 00:40:05;;;;;;;4.50;1.92;;;16.10;99.90;;;;;;5059179;28;20033;-84
2021/08/05 00:42:31;;;;;;;5.18;2.03;;;16.10;99.90;;;;;;5057611;28;20036;-84
2021/08/05 00:44:57;;;;;;;6.07;2.13;;;16.10;99.90;;;;;;5057630;28;20047;-84
2021/08/05 00:47:26;;;;;;;3.95;1.98;;;16.00;99.90;;;;;;5056816;28;20104;-85
2021/08/05 00:49:52;;;;;;;4.32;1.83;;;16.40;99.90;;;;;;5050976;28;20079;-85
2021/08/05 00:52:18;;;;;;;4.28;1.83;;;17.00;99.90;;;;;;5054560;28;20037;-84
2021/08/05 00:54:47;;;;;;;5.13;1.70;;;16.50;99.90;;;;;;5053647;28;20035;-84
2021/08/05 00:57:12;;;;;;;3.20;1.70;;;16.00;99.90;;;;;;5054221;28;20044;-84
2021/08/05 00:59:38;;;;;;;5.65;1.90;;;16.00;99.90;;;;;;5046327;28;20099;-84
2021/08/05 01:02:15;;;;;;;5.18;2.15;;;16.00;99.90;;;;;;5047554;28;20032;-84
2021/08/05 01:04:41;;;;;;;4.53;2.10;;;16.00;99.90;;;;;;5054104;28;20036;-85
2021/08/05 01:07:21;;;;;;;4.93;1.80;;;16.50;99.90;;;;;;5053636;28;20478;-85
2021/08/05 01:10:16;;;;;;;3.90;1.85;;;15.90;99.90;;;;;;5044077;28;20565;-84
2021/08/05 01:13:00;;;;;;;4.68;1.85;;;15.90;99.90;;;;;;5054084;28;20052;-84
2021/08/05 01:15:30;;;;;;;5.82;2.25;;;15.90;99.90;;;;;;5053970;28;20496;-84
2021/08/05 01:18:01;;;;;;;5.60;2.10;;;15.80;99.90;;;;;;5052792;28;20378;-83
2021/08/05 01:20:28;;;;;;;4.78;2.00;;;16.00;99.90;;;;;;5066000;28;20082;-84
2021/08/05 01:23:24;;;;;;;5.47;1.92;;;16.70;99.90;;;;;;5054314;28;20033;-84
2021/08/05 01:25:57;;;;;;;4.32;1.92;;;15.90;99.90;;;;;;5046397;28;20116;-84
2021/08/05 01:28:23;;;;;;;4.30;2.20;;;16.20;99.90;;;;;;5048990;28;20423;-84
2021/08/05 01:30:50;;;;;;;4.72;1.85;;;16.00;99.90;;;;;;5052638;28;20043;-83
2021/08/05 01:33:19;;;;;;;5.35;2.13;;;16.20;99.90;;;;;;5054216;28;20515;-84
2021/08/05 01:35:47;;;;;;;2.90;1.63;;;15.90;99.90;;;;;;5049734;28;20108;-84
2021/08/05 01:38:15;;;;;;;5.55;2.20;;;15.90;99.90;;;;;;5048393;28;20063;-86
2021/08/05 01:40:41;;;;;;;6.18;2.28;;;16.30;99.90;;;;;;5063048;28;20089;-85
2021/08/05 01:43:08;;;;;;;5.55;1.98;;;15.90;99.90;;;;;;5055438;28;20029;-85
2021/08/05 01:45:34;;;;;;;4.70;2.20;;;15.90;99.90;;;;;;5051752;28;20121;-84
2021/08/05 01:48:01;;;;;;;5.93;1.92;;;16.30;99.90;;;;;;5053417;28;20025;-86
2021/08/05 01:50:28;;;;;;;6.97;2.28;;;15.80;99.90;;;;;;5054427;28;20021;-85
2021/08/05 01:52:54;;;;;;;4.93;2.03;;;16.30;99.90;;;;;;5054176;28;20033;-85
2021/08/05 01:55:19;;;;;;;5.82;1.95;;;15.60;99.90;;;;;;5049944;28;20017;-85
2021/08/05 01:57:45;;;;;;;5.57;2.05;;;15.80;99.90;;;;;;5054160;28;20482;-85
2021/08/05 02:00:11;;;;;;;5.30;2.00;;;15.70;99.90;;;;;;5053375;28;20025;-84
2021/08/05 02:02:37;;;;;;;6.28;2.30;;;15.80;99.90;;;;;;5054228;28;20025;-85
2021/08/05 02:05:08;;;;;;;4.15;2.10;;;16.20;99.90;;;;;;5042309;28;20061;-85
2021/08/05 02:08:02;;;;;;;4.22;2.03;;;15.70;99.90;;;;;;5053886;28;20485;-85
2021/08/05 02:10:34;;;;;;;5.82;1.90;;;15.70;99.90;;;;;;5054070;28;20165;-85
2021/08/05 02:13:25;;;;;;;5.10;2.10;;;15.70;99.90;;;;;;5045572;28;20386;-85
2021/08/05 02:15:53;;;;;;;4.38;1.83;;;15.70;99.90;;;;;;5054296;28;20036;-85
2021/08/05 02:18:20;;;;;;;3.65;1.75;;;15.70;99.90;;;;;;5053501;28;20029;-85
2021/08/05 02:20:47;;;;;;;4.95;2.00;;;15.70;99.90;;;;;;5053461;28;20132;-86
2021/08/05 02:23:14;;;;;;;5.15;2.25;;;15.70;99.90;;;;;;5039730;28;20056;-85
2021/08/05 02:25:41;;;;;;;4.68;1.88;;;15.70;99.90;;;;;;5043314;28;20048;-85
2021/08/05 02:28:08;;;;;;;5.97;1.80;;;15.70;99.90;;;;;;5054030;28;20108;-85
2021/08/05 02:30:36;;;;;;;6.03;1.65;;;15.70;99.90;;;;;;5049397;28;20092;-84
2021/08/05 02:33:02;;;;;;;4.95;2.00;;;15.90;99.90;;;;;;5052779;28;20025;-85
2021/08/05 02:35:28;;;;;;;4.38;1.95;;;15.70;99.90;;;;;;5052896;28;20407;-85
2021/08/05 02:37:54;;;;;;;4.10;1.67;;;15.60;99.90;;;;;;5053259;28;20021;-85
2021/08/05 02:40:20;;;;;;;4.03;1.67;;;15.80;99.90;;;;;;5051922;28;20035;-85
2021/08/05 02:42:46;;;;;;;5.13;1.88;;;15.70;99.90;;;;;;5052538;28;20481;-85
2021/08/05 02:45:13;;;;;;;4.88;1.90;;;16.20;99.90;;;;;;5053234;28;20240;-84
2021/08/05 02:47:39;;;;;;;4.07;2.13;;;15.60;99.90;;;;;;5055063;28;20579;-85
2021/08/05 02:50:06;;;;;;;5.00;2.40;;;15.60;99.90;;;;;;5055968;28;20033;-85
2021/08/05 02:52:33;;;;;;;9.82;2.35;;;15.50;99.90;;;;;;5052213;28;20032;-84
2021/08/05 02:55:01;;;;;;;4.05;2.22;;;15.50;99.90;;;;;;5052895;28;20037;-85
2021/08/05 02:57:27;;;;;;;4.88;2.20;;;15.40;99.90;;;;;;5040318;28;20095;-84
2021/08/05 02:59:53;;;;;;;4.13;2.17;;;15.40;99.90;;;;;;5051918;28;20028;-85
2021/08/05 03:02:18;;;;;;;6.50;2.63;;;15.30;99.90;;;;;;5052685;28;20028;-85
2021/08/05 03:04:44;;;;;;;4.75;2.55;;;14.90;99.90;;;;;;5041609;28;20037;-84
2021/08/05 03:07:11;;;;;;;5.05;2.50;;;15.40;99.90;;;;;;5049105;28;20037;-85
2021/08/05 03:09:36;;;;;;;5.28;2.72;;;15.20;99.90;;;;;;5051730;28;20138;-85
2021/08/05 03:12:02;;;;;;;3.70;2.22;;;14.80;99.90;;;;;;5052767;28;20501;-85
2021/08/05 03:14:28;;;;;;;4.22;2.30;;;15.20;99.90;;;;;;5044573;28;20041;-86
2021/08/05 03:16:54;;;;;;;4.43;2.40;;;15.90;99.90;;;;;;5046891;28;20489;-85
2021/08/05 03:19:19;;;;;;;5.00;2.58;;;15.40;99.90;;;;;;5052724;28;20064;-85
2021/08/05 03:21:45;;;;;;;7.25;2.55;;;15.20;99.90;;;;;;5046930;28;20593;-85
2021/08/05 03:24:10;;;;;;;3.92;2.25;;;15.30;99.90;;;;;;5037077;28;20030;-85
2021/08/05 03:26:36;;;;;;;4.95;2.13;;;15.40;99.90;;;;;;5050507;28;20361;-85
2021/08/05 03:29:02;;;;;;;4.20;2.33;;;15.30;99.90;;;;;;5053334;28;20260;-85
2021/08/05 03:31:28;;;;;;;4.57;2.10;;;15.30;99.90;;;;;;5047284;28;20033;-85
2021/08/05 03:33:54;;;;;;;3.92;1.85;;;15.30;99.90;;;;;;5055584;28;20029;-85
2021/08/05 03:36:19;;;;;;;5.47;2.40;;;15.60;99.90;;;;;;5053706;28;20103;-85
2021/08/05 03:38:45;;;;;;;4.65;2.72;;;15.30;99.90;;;;;;5053171;28;20029;-84
2021/08/05 03:41:11;;;;;;;5.18;2.42;;;15.30;99.90;;;;;;5044300;28;20049;-84
2021/08/05 03:43:36;;;;;;;4.53;2.58;;;15.30;99.90;;;;;;5049255;28;20507;-85
2021/08/05 03:46:02;;;;;;;5.82;2.47;;;15.20;99.90;;;;;;5051268;28;20021;-85
2021/08/05 03:48:28;;;;;;;4.43;2.05;;;14.90;99.90;;;;;;5049685;28;20503;-85
2021/08/05 03:50:53;;;;;;;5.97;2.72;;;15.20;99.90;;;;;;5050158;28;20036;-85
2021/08/05 03:53:19;;;;;;;4.38;2.47;;;15.30;99.90;;;;;;5050524;28;20029;-85
2021/08/05 03:55:45;;;;;;;6.63;2.85;;;15.20;99.90;;;;;;5048955;28;20033;-84
2021/08/05 03:58:10;;;;;;;4.75;2.42;;;15.60;99.90;;;;;;5051352;28;20043;-85
2021/08/05 04:00:37;;;;;;;5.88;3.03;;;15.60;99.90;;;;;;5050092;28;20101;-85
2021/08/05 04:03:02;;;;;;;5.85;3.00;;;15.20;99.90;;;;;;5050568;28;20625;-85
2021/08/05 04:05:29;;;;;;;6.45;2.70;;;15.20;99.90;;;;;;5039324;28;20034;-85
2021/08/05 04:07:54;;;;;;;5.55;2.70;;;14.80;99.90;;;;;;5048546;28;20442;-85
2021/08/05 04:10:20;;;;;;;4.07;2.25;;;15.20;99.90;;;;;;5051540;28;20032;-84
2021/08/05 04:12:50;;;;;;;4.50;2.58;;;15.20;99.90;;;;;;5048114;28;20394;-85
2021/08/05 04:15:15;;;;;;;5.40;2.95;;;15.30;99.90;;;;;;5061277;28;20064;-85
2021/08/05 04:17:41;;;;;;;5.25;2.90;;;15.90;99.90;;;;;;5047971;28;20460;-85
2021/08/05 04:20:08;;;;;;;5.60;2.83;;;15.20;99.90;;;;;;5048343;28;20017;-85
2021/08/05 04:22:36;;;;;;;6.75;2.92;;;15.30;99.90;;;;;;5041578;28;20028;-85
2021/08/05 04:25:05;;;;;;;14.20;4.70;;;15.30;99.90;;;;;;5052545;28;20037;-85
2021/08/05 04:27:31;;;;;;;7.53;2.83;;;15.30;99.90;;;;;;5053497;28;20036;-84
2021/08/05 04:29:56;;;;;;;4.63;2.53;;;15.30;99.90;;;;;;5047526;28;20822;-85
2021/08/05 04:32:22;;;;;;;6.45;3.40;;;15.40;99.90;;;;;;5052724;28;20049;-85
2021/08/05 04:34:48;;;;;;;5.40;2.75;;;15.20;99.90;;;;;;5053419;28;20066;-84
2021/08/05 04:37:15;;;;;;;5.47;2.85;;;15.40;99.90;;;;;;5053976;28;20482;-85
2021/08/05 04:39:41;;;;;;;6.65;2.85;;;15.40;99.90;;;;;;5048761;28;20021;-84
2021/08/05 04:42:07;;;;;;;7.38;2.97;;;15.50;99.90;;;;;;5053766;28;20495;-85
2021/08/05 04:44:33;;;;;;;7.72;2.80;;;15.60;99.90;;;;;;5052482;28;20028;-85
2021/08/05 04:46:59;;;;;;;4.90;2.90;;;15.20;99.90;;;;;;5046690;28;20112;-85
2021/08/05 04:49:24;;;;;;;6.70;3.13;;;15.40;99.90;;;;;;5045879;28;20036;-85
2021/08/05 04:51:53;;;;;;;7.22;3.20;;;15.40;99.90;;;;;;5053282;28;20029;-85
2021/08/05 04:54:20;;;;;;;6.30;3.67;;;15.60;99.90;;;;;;5051968;28;20052;-85
2021/08/05 04:56:46;;;;;;;6.88;3.35;;;15.30;99.90;;;;;;5047604;28;20017;-85
2021/08/05 04:59:12;;;;;;;5.53;3.22;;;15.40;99.90;;;;;;5051624;28;20717;-85
2021/08/05 05:01:37;;;;;;;6.65;2.97;;;15.40;99.90;;;;;;5052980;28;20127;-85
2021/08/05 05:04:03;;;;;;;6.60;3.60;;;15.50;99.90;;;;;;5051514;28;20110;-85
2021/08/05 05:06:29;;;;;;;7.35;3.40;;;15.60;99.90;;;;;;5037519;28;20061;-85
2021/08/05 05:08:55;;;;;;;7.05;3.85;;;15.50;99.90;;;;;;5052828;28;20497;-85
2021/08/05 05:11:21;;;;;;;8.05;4.28;;;15.50;99.90;;;;;;5052684;28;20466;-85
2021/08/05 05:13:46;;;;;;;7.60;3.75;;;15.80;99.90;;;;;;5051489;28;20453;-85
2021/08/05 05:16:12;;;;;;;7.00;3.45;;;15.30;99.90;;;;;;5052728;28;20715;-84
2021/08/05 05:18:38;;;;;;;10.40;4.28;;;15.80;99.90;;;;;;5052490;28;20029;-85
2021/08/05 05:21:04;;;;;;;11.20;4.10;;;15.30;99.90;;;;;;5042599;28;20033;-85
2021/08/05 05:23:31;;;;;;;5.68;3.33;;;15.30;99.90;;;;;;5045877;28;20025;-85
2021/08/05 05:25:57;;;;;;;6.90;3.30;;;16.00;99.90;;;;;;5050258;28;20025;-85
2021/08/05 05:28:23;;;;;;;6.95;3.60;;;15.30;99.90;;;;;;5050816;28;20094;-84
2021/08/05 05:30:49;;;;;;;6.78;3.25;;;15.40;99.90;;;;;;5042990;28;20025;-85
2021/08/05 05:33:15;;;;;;;7.35;3.30;;;15.40;99.90;;;;;;5043082;28;20024;-84
2021/08/05 05:35:41;;;;;;;9.77;3.10;;;15.30;99.90;;;;;;5053420;28;20494;-85
2021/08/05 05:38:08;;;;;;;6.55;3.63;;;15.30;99.90;;;;;;5039934;28;20628;-84
2021/08/05 05:40:34;;;;;;;6.82;3.40;;;15.30;99.90;;;;;;5037094;28;20020;-85
2021/08/05 05:43:00;;;;;;;7.50;3.20;;;15.40;99.90;;;;;;5048057;28;20036;-84
2021/08/05 05:45:27;;;;;;;5.88;3.30;;;15.40;99.90;;;;;;5056148;28;20080;-84
2021/08/05 05:47:53;;;;;;;8.20;3.28;;;15.30;99.90;;;;;;5049836;28;20025;-85
2021/08/05 05:50:19;;;;;;;4.82;3.15;;;15.40;99.90;;;;;;5049060;28;20029;-84
2021/08/05 05:52:47;;;;;;;9.27;3.58;;;15.80;99.90;;;;;;5051852;28;20021;-85
2021/08/05 05:55:13;;;;;;;8.13;3.33;;;15.40;99.90;;;;;;5051410;28;20554;-85
2021/08/05 05:57:39;;;;;;;7.40;3.53;;;15.80;99.90;;;;;;5052001;28;20024;-84
2021/08/05 06:00:06;;;;;;;6.32;3.08;;;15.40;99.90;;;;;;5052855;28;20021;-85
2021/08/05 06:02:31;;;;;;;5.55;3.10;;;15.40;99.90;;;;;;5058463;28;20059;-84
2021/08/05 06:04:57;;;;;;;6.10;2.97;;;15.40;99.90;;;;;;5066542;28;20546;-84
2021/08/05 06:07:22;;;;;;;7.07;2.92;;;15.10;99.90;;;;;;5053155;28;21366;-84
2021/08/05 06:09:48;;;;;;;7.15;2.80;;;15.30;99.90;;;;;;5055173;28;20047;-84
2021/08/05 06:12:14;;;;;;;5.78;2.70;;;15.40;99.90;;;;;;5061550;28;20119;-85
2021/08/05 06:14:44;;;;;;;5.88;3.30;;;15.70;99.90;;;;;;5051660;28;20016;-85
2021/08/05 06:17:09;;;;;;;5.47;2.90;;;15.70;99.90;;;;;;5052180;28;20025;-84
2021/08/05 06:19:35;;;;;;;4.60;2.70;;;15.90;99.90;;;;;;5039183;28;20028;-84
2021/08/05 06:22:02;;;;;;;6.25;2.75;;;16.10;99.90;;;;;;5043465;28;20104;-85
2021/08/05 06:24:27;;;;;;;11.65;3.50;;;16.30;99.90;;;;;;5050295;28;20053;-85
2021/08/05 06:26:53;;;;;;;8.43;3.20;;;15.90;99.90;;;;;;5057347;28;20122;-84
2021/08/05 06:29:19;;;;;;;6.47;3.10;;;16.60;99.90;;;;;;5056215;28;20110;-84
2021/08/05 06:31:45;;;;;;;5.68;2.25;;;16.50;99.90;;;;;;5051286;28;20100;-85
2021/08/05 06:34:12;;;;;;;4.28;2.30;;;16.90;99.90;;;;;;5054351;28;20378;-85
2021/08/05 06:36:38;;;;;;;7.60;2.53;;;17.20;99.90;;;;;;5050430;28;20570;-85
2021/08/05 06:39:07;;;;;;;5.72;2.15;;;17.20;99.90;;;;;;5047165;28;20021;-85
2021/08/05 06:41:33;;;;;;;4.25;2.22;;;17.30;99.90;;;;;;5050285;28;20036;-84
2021/08/05 06:46:47;;;;;;;6.57;2.88;;;17.50;99.90;;;;;;5038515;28;20045;-85
2021/08/05 06:49:16;;;;;;;5.30;2.10;;;17.70;99.90;;;;;;5043682;28;20105;-85
2021/08/05 06:51:46;;;;;;;5.95;1.83;;;17.80;99.90;;;;;;5048483;28;20025;-85
2021/08/05 06:54:14;;;;;;;3.28;1.80;;;17.80;99.90;;;;;;5049109;28;20029;-85
2021/08/05 06:56:42;;;;;;;4.78;2.05;;;17.70;99.90;;;;;;5051252;28;20017;-85
2021/08/05 06:59:10;;;;;;;5.03;2.33;;;17.50;99.90;;;;;;5050623;28;20043;-86
2021/08/05 07:01:35;;;;;;;4.47;1.88;;;17.40;99.90;;;;;;5053675;28;20111;-84
2021/08/05 07:04:02;;;;;;;4.40;2.00;;;17.50;99.90;;;;;;5054329;28;20049;-86
2021/08/05 07:06:27;;;;;;;5.93;2.90;;;17.50;99.90;;;;;;5055241;28;20024;-85
2021/08/05 07:08:53;;;;;;;4.88;1.80;;;17.50;99.90;;;;;;5058841;28;20033;-86
2021/08/05 07:11:19;;;;;;;6.65;2.13;;;17.50;99.90;;;;;;5065849;28;20024;-85
2021/08/05 07:13:47;;;;;;;5.15;2.20;;;17.70;99.90;;;;;;5052747;28;20029;-86
2021/08/05 07:16:13;;;;;;;6.53;2.10;;;17.90;99.90;;;;;;5048811;28;20457;-86
2021/08/05 07:18:39;;;;;;;6.07;2.40;;;18.10;99.90;;;;;;5059784;28;20032;-85
2021/08/05 07:21:08;;;;;;;5.25;2.10;;;17.90;99.90;;;;;;5049634;28;20046;-86
2021/08/05 07:23:33;;;;;;;5.88;2.17;;;18.00;99.90;;;;;;5047442;28;20029;-86
2021/08/05 07:25:59;;;;;;;5.18;2.20;;;18.00;99.90;;;;;;5052731;28;20029;-86
2021/08/05 07:28:27;;;;;;;3.67;1.67;;;18.00;99.90;;;;;;5057888;28;20060;-86
2021/08/05 07:30:53;;;;;;;6.55;1.50;;;18.80;99.90;;;;;;5042577;28;20029;-87
2021/08/05 07:33:19;;;;;;;4.38;1.58;;;18.30;99.90;;;;;;5043752;28;20112;-87
2021/08/05 07:35:45;;;;;;;4.57;2.00;;;18.40;99.90;;;;;;5047788;28;20017;-86
2021/08/05 07:38:13;;;;;;;3.92;1.55;;;18.40;99.90;;;;;;5062058;28;20017;-87
2021/08/05 07:40:39;;;;;;;3.28;1.60;;;18.50;99.90;;;;;;5069493;28;20032;-87
2021/08/05 07:43:05;;;;;;;5.38;1.80;;;18.50;99.90;;;;;;5054985;28;20032;-86
2021/08/05 07:45:32;;;;;;;4.63;1.70;;;18.60;99.90;;;;;;5057046;28;20029;-86
2021/08/05 07:47:58;;;;;;;5.50;1.95;;;18.80;99.90;;;;;;5072090;28;20044;-86
2021/08/05 07:50:27;;;;;;;5.15;1.83;;;18.90;99.90;;;;;;5058666;28;20138;-87
2021/08/05 07:52:52;;;;;;;3.42;1.70;;;18.80;99.90;;;;;;5060471;28;20033;-86
2021/08/05 07:55:19;;;;;;;5.97;2.45;;;19.30;99.90;;;;;;5061084;28;20032;-87
2021/08/05 07:57:45;;;;;;;4.35;2.00;;;19.40;99.90;;;;;;5065277;28;20024;-86
2021/08/05 08:00:13;;;;;;;4.13;1.90;;;19.80;99.90;;;;;;5056183;28;20145;-88
2021/08/05 08:02:52;;;;;;;4.78;2.00;;;19.40;99.90;;;;;;5061888;28;20084;-88
2021/08/05 08:05:17;;;;;;;3.88;1.80;;;19.20;99.90;;;;;;5060449;22;20095;-83
2021/08/05 08:07:44;;;;;;;6.07;1.80;;;19.10;99.90;;;;;;5038455;28;20018;-83
2021/08/05 08:10:11;;;;;;;5.63;2.10;;;19.20;99.90;;;;;;5050606;28;20028;-81
2021/08/05 08:12:37;;;;;;;4.68;1.52;;;19.10;99.90;;;;;;5030769;28;20038;-81
2021/08/05 08:15:03;;;;;;;4.20;1.70;;;19.20;99.90;;;;;;5032171;28;20026;-81
2021/08/05 08:17:29;;;;;;;6.85;2.15;;;19.20;99.90;;;;;;5027239;28;20025;-81
2021/08/05 08:19:55;;;;;;;4.43;1.80;;;19.20;99.90;;;;;;5027114;28;20043;-81
2021/08/05 08:22:20;;;;;;;6.18;1.80;;;19.20;99.90;;;;;;5030316;28;20021;-82
2021/08/05 08:24:46;;;;;;;3.75;1.92;;;19.10;99.90;;;;;;5022213;28;20099;-82
2021/08/05 08:27:12;;;;;;;4.13;1.92;;;19.10;99.90;;;;;;5025183;28;20021;-82
2021/08/05 08:29:37;;;;;;;3.13;1.48;;;18.90;99.90;;;;;;5030086;28;20636;-82
2021/08/05 08:32:03;;;;;;;4.65;2.10;;;19.40;99.90;;;;;;5032177;28;20047;-82
2021/08/05 08:34:28;;;;;;;3.55;1.77;;;19.40;99.90;;;;;;5018531;28;20029;-82
2021/08/05 08:36:55;;;;;;;3.75;1.60;;;19.50;99.90;;;;;;5030155;28;20037;-83
2021/08/05 08:39:22;;;;;;;5.20;1.70;;;19.50;99.90;;;;;;5031218;28;20028;-82
2021/08/05 08:41:48;;;;;;;3.17;1.33;;;19.60;99.90;;;;;;5030869;28;20025;-82
2021/08/05 08:44:14;;;;;;;7.00;1.60;;;19.60;99.90;;;;;;5027551;28;20035;-82
2021/08/05 08:46:41;;;;;;;3.70;1.35;;;19.30;99.90;;;;;;5031956;28;20041;-82
2021/08/05 08:49:07;;;;;;;3.55;1.67;;;19.40;99.90;;;;;;5025566;28;20065;-82
2021/08/05 08:51:34;;;;;;;2.63;1.25;;;19.60;99.90;;;;;;5032092;28;20034;-81
2021/08/05 08:54:08;;;;;;;5.07;1.77;;;19.50;99.90;;;;;;5027644;28;20041;-82
2021/08/05 08:56:38;;;;;;;2.90;1.25;;;19.60;99.90;;;;;;5030271;28;20025;-82
2021/08/05 08:59:05;;;;;;;5.15;1.63;;;19.90;99.90;;;;;;5024730;28;20052;-82
2021/08/05 09:01:31;;;;;;;5.07;1.67;;;19.90;99.90;;;;;;5028049;28;20040;-82
2021/08/05 09:03:57;;;;;;;3.63;1.60;;;20.00;99.90;;;;;;5022494;28;20061;-82
2021/08/05 09:06:23;;;;;;;4.40;1.52;;;20.00;99.90;;;;;;5022306;28;20056;-82
2021/08/05 09:08:49;;;;;;;3.92;1.92;;;20.30;99.90;;;;;;5023332;28;20191;-82
2021/08/05 09:11:15;;;;;;;3.25;1.70;;;20.40;99.90;;;;;;5021226;28;20132;-82
2021/08/05 09:13:41;;;;;;;5.35;2.15;;;20.10;99.90;;;;;;5027360;28;20022;-84
2021/08/05 09:16:39;;;;;;;3.63;2.03;;;20.20;99.90;;;;;;5022945;28;20119;-85
2021/08/05 09:19:16;;;;;;;4.72;1.98;;;20.50;99.90;;;;;;5006857;28;20036;-85
2021/08/05 09:22:01;;;;;;;3.03;1.60;;;20.70;99.90;;;;;;5027056;28;20033;-85
2021/08/05 09:24:28;;;;;;;3.80;1.90;;;20.40;99.90;;;;;;5015950;28;20118;-83
2021/08/05 09:26:57;;;;;;;4.22;1.90;;;20.10;99.90;;;;;;5026578;28;20032;-83
2021/08/05 09:29:25;;;;;;;3.10;1.50;;;20.20;99.90;;;;;;5025148;28;20032;-82
2021/08/05 09:31:50;;;;;;;3.97;1.50;;;20.50;99.90;;;;;;5030897;28;20030;-84
2021/08/05 09:34:23;;;;;;;4.60;1.42;;;21.00;99.90;;;;;;5027630;28;20493;-84
2021/08/05 09:37:00;;;;;;;3.45;0.98;;;21.40;99.90;;;;;;5026725;28;20045;-84
2021/08/05 09:39:32;;;;;;;3.25;1.00;;;21.60;99.90;;;;;;5028514;28;20041;-84
2021/08/05 09:41:59;;;;;;;;;;;21.90;99.90;;;;;;5027883;28;20053;-84
2021/08/05 09:44:41;;;;;;;3.33;1.30;;;21.80;99.90;;;;;;5027345;28;19916;-84
2021/08/05 09:47:12;;;;;;;1.90;0.82;;;21.90;99.90;;;;;;5031475;28;20501;-84
2021/08/05 09:49:55;;;;;;;3.08;1.25;;;22.10;99.90;;;;;;5029221;28;20454;-84
2021/08/05 09:52:31;;;;;;;2.10;0.98;;;22.10;99.90;;;;;;5029308;28;20036;-85
2021/08/05 09:54:57;;;;;;;3.00;1.20;;;22.20;99.90;;;;;;5030619;28;20363;-84
2021/08/05 09:57:28;;;;;;;3.38;1.30;;;22.00;99.90;;;;;;5024272;28;20029;-84
2021/08/05 10:00:01;;;;;;;3.38;1.40;;;22.30;99.90;;;;;;5023960;28;20026;-84
2021/08/05 10:02:38;;;;;;;4.97;1.10;;;22.40;99.90;;;;;;5023987;28;20032;-85
2021/08/05 10:05:15;;;;;;;3.25;1.10;;;22.40;99.90;;;;;;5023078;28;20029;-84
2021/08/05 10:07:44;;;;;;;3.83;0.80;;;22.00;99.90;;;;;;5029137;28;20112;-83
2021/08/05 10:10:11;;;;;;;4.13;0.90;;;21.80;99.90;;;;;;5031361;28;20021;-83
2021/08/05 10:12:38;;;;;;;2.35;0.90;;;21.60;99.90;;;;;;5027343;28;20051;-83
2021/08/05 10:15:12;;;;;;;2.08;0.73;;;21.60;99.90;;;;;;5028338;28;20093;-84
2021/08/05 10:17:40;;;;;;;2.85;0.70;;;21.60;99.90;;;;;;5026854;28;20113;-83
2021/08/05 10:20:09;;;;;;;2.22;0.88;;;22.20;99.90;;;;;;5029569;28;20025;-83
2021/08/05 10:22:35;;;;;;;2.05;0.80;;;22.40;99.90;;;;;;5026655;28;20179;-82
2021/08/05 10:25:02;;;;;;;1.85;0.90;;;22.50;99.90;;;;;;5023358;28;20066;-83
2021/08/05 10:27:29;;;;;;;2.42;0.80;;;22.40;99.90;;;;;;5016547;28;20018;-85
2021/08/05 10:29:57;;;;;;;2.65;1.15;;;22.50;99.90;;;;;;5027603;28;20125;-84
2021/08/05 10:32:23;;;;;;;2.03;1.00;;;22.40;99.90;;;;;;5024359;28;20030;-84
2021/08/05 10:34:51;;;;;;;2.33;0.80;;;22.60;99.90;;;;;;5030620;28;20429;-84
2021/08/05 10:37:17;;;;;;;2.05;0.68;;;22.30;99.90;;;;;;5029615;28;20032;-84
2021/08/05 10:39:45;;;;;;;2.97;0.80;;;22.20;99.90;;;;;;5029794;28;20017;-84
2021/08/05 10:42:15;;;;;;;1.25;0.50;;;22.20;99.90;;;;;;5024371;28;20541;-84
2021/08/05 10:44:41;;;;;;;2.38;0.90;;;22.70;99.90;;;;;;5028426;28;20100;-84
2021/08/05 10:47:12;;;;;;;1.55;0.70;;;23.20;99.90;;;;;;5030853;28;20045;-85
2021/08/05 10:49:39;;;;;;;1.60;0.60;;;23.60;99.90;;;;;;5028889;28;20033;-83
2021/08/05 10:52:05;;;;;;;1.90;0.90;;;23.70;99.90;;;;;;5029068;28;20556;-84
2021/08/05 10:54:46;;;;;;;1.85;0.70;;;24.00;99.90;;;;;;5025922;28;20021;-84
2021/08/05 10:57:31;;;;;;;1.60;0.65;;;24.30;99.90;;;;;;5030451;28;20036;-84
2021/08/05 11:00:00;;;;;;;1.73;0.68;;;23.70;99.90;;;;;;5028312;28;20037;-84
2021/08/05 11:02:42;;;;;;;2.65;0.80;;;23.30;99.90;;;;;;5030908;28;20036;-84
2021/08/05 11:05:09;;;;;;;2.05;0.70;;;22.70;99.90;;;;;;5024943;28;20032;-84
2021/08/05 11:07:35;;;;;;;2.45;0.60;;;22.60;99.90;;;;;;5026498;28;20041;-83
2021/08/05 11:10:19;;;;;;;0.98;0.50;;;22.20;99.90;;;;;;5030267;28;20035;-84
2021/08/05 11:13:07;;;;;;;2.22;0.50;;;22.00;99.90;;;;;;5027536;28;20029;-83
2021/08/05 11:15:35;;;;;;;1.92;0.47;;;22.20;99.90;;;;;;5022648;28;20065;-83
2021/08/05 11:18:22;;;;;;;2.45;0.50;;;22.60;99.90;;;;;;5026477;28;20018;-83
2021/08/05 11:20:51;;;;;;;1.75;0.52;;;23.50;99.90;;;;;;5024058;28;20080;-83
2021/08/05 11:23:38;;;;;;;1.30;0.60;;;23.80;99.70;;;;;;5031828;28;20041;-83
2021/08/05 11:26:11;;;;;;;1.35;0.47;;;23.30;99.90;;;;;;5028953;28;20030;-83
2021/08/05 11:28:40;;;;;;;1.60;0.70;;;23.20;99.90;;;;;;5004855;28;20096;-83
2021/08/05 11:31:11;;;;;;;1.40;0.55;;;23.20;99.90;;;;;;5031587;28;20039;-83
2021/08/05 11:33:36;;;;;;;1.87;0.60;;;23.20;99.90;;;;;;5025525;28;20044;-83
2021/08/05 11:38:57;;;;;;;2.47;0.70;;;23.10;99.90;;;;;;5028066;28;20049;-83
2021/08/05 11:41:51;;;;;;;1.98;1.00;;;23.10;99.90;;;;;;5025624;28;20104;-85
2021/08/05 11:44:18;;;;;;;1.55;0.60;;;23.30;99.90;;;;;;5033606;28;20017;-86
2021/08/05 11:46:47;;;;;;;5.03;0.98;;;24.00;99.90;;;;;;5027248;28;20512;-85
2021/08/05 11:49:31;;;;;;;1.80;0.70;;;24.40;99.90;;;;;;5031141;28;20030;-85
2021/08/05 11:51:58;;;;;;;2.42;0.70;;;24.40;99.30;;;;;;5015766;28;20034;-86
2021/08/05 11:54:24;;;;;;;1.92;0.60;;;24.10;99.10;;;;;;5032488;28;20028;-85
2021/08/05 11:56:59;;;;;;;1.25;0.60;;;24.00;99.50;;;;;;5037429;28;20022;-85
2021/08/05 11:59:32;;;;;;;3.10;0.52;;;24.20;98.80;;;;;;5033780;28;20136;-85
2021/08/05 12:02:09;;;;;;;1.75;0.70;;;24.40;98.20;;;;;;5032081;28;20504;-84
2021/08/05 12:04:35;;;;;;;3.15;0.70;;;24.50;98.50;;;;;;5033335;28;20037;-84
2021/08/05 12:07:21;;;;;;;2.78;0.70;;;24.60;98.20;;;;;;5035763;28;20025;-83
2021/08/05 12:10:08;;;;;;;1.45;0.55;;;24.60;98.10;;;;;;5034705;28;20025;-84
2021/08/05 12:12:44;;;;;;;1.90;0.60;;;24.70;98.40;;;;;;5033603;28;20034;-84
2021/08/05 12:15:13;;;;;;;1.75;0.70;;;24.80;97.90;;;;;;5035860;28;20018;-84
2021/08/05 12:17:48;;;;;;;1.92;0.73;;;24.90;96.90;;;;;;5027734;28;20021;-84
2021/08/05 12:20:33;;;;;;;1.92;0.57;;;25.30;97.70;;;;;;5027765;28;20044;-84
2021/08/05 12:23:33;;;;;;;2.70;0.70;;;25.60;97.40;;;;;;5031668;28;20099;-84
2021/08/05 12:26:17;;;;;;;2.13;0.70;;;25.90;96.60;;;;;;5029934;28;20026;-85
2021/08/05 12:28:45;;;;;;;1.30;0.60;;;26.50;95.20;;;;;;5026144;28;20366;-84
2021/08/05 12:31:18;;;;;;;1.55;0.60;;;26.50;95.30;;;;;;5026014;28;20542;-84
2021/08/05 12:33:44;;;;;;;2.22;0.70;;;26.40;94.60;;;;;;5026747;28;20033;-84
2021/08/05 12:36:23;;;;;;;1.48;0.68;;;26.00;94.60;;;;;;5025603;28;20025;-84
2021/08/05 12:38:55;;;;;;;4.95;1.00;;;25.50;95.90;;;;;;5030885;28;20029;-84
2021/08/05 12:41:46;;;;;;;1.98;0.68;;;25.10;96.80;;;;;;5033009;28;20063;-83
2021/08/05 12:44:24;;;;;;;1.40;0.60;;;24.80;97.00;;;;;;5031854;28;20038;-79
2021/08/05 12:46:51;;;;;;;1.83;0.70;;;24.40;97.60;;;;;;5025142;28;20041;-79
2021/08/05 12:49:18;;;;;;;1.55;0.60;;;24.10;97.10;;;;;;5037649;28;20158;-79
2021/08/05 12:51:45;;;;;;;2.17;0.70;;;23.90;98.10;;;;;;5039844;28;20029;-80
2021/08/05 12:54:15;;;;;;;1.88;0.70;;;23.60;98.10;;;;;;5020202;28;20021;-80
2021/08/05 12:56:46;;;;;;;4.13;0.90;;;23.40;99.90;;;;;;5039073;28;20025;-80
2021/08/05 12:59:13;;;;;;;1.73;0.77;;;23.10;99.90;;;;;;5039976;28;20022;-80
2021/08/05 13:01:39;;;;;;;2.65;0.70;;;22.60;99.90;;;;;;5038100;28;20037;-84